sensor_id;sensor_type;location;lat;lon;timestamp;temperature;humidity
23079;DHT22;11707;50.830;4.364;2024-01-30T00:02:15;11.90;1.00
23079;DHT22;11707;50.830;4.364;2024-01-30T00:04:40;12.00;1.00
23079;DHT22;11707;50.830;4.364;2024-01-30T00:07:06;12.00;1.00
23079;DHT22;11707;50.830;4.364;2024-01-30T00:09:32;12.10;1.00
23079;DHT22;11707;50.830;4.364;2024-01-30T00:11:58;12.00;1.00
23079;DHT22;11707;50.830;4.364;2024-01-30T00:14:27;12.10;1.00
23079;DHT22;11707;50.830;4.364;2024-01-30T00:16:55;12.20;1.00
23079;DHT22;11707;50.830;4.364;2024-01-30T00:19:21;12.20;1.00
23079;DHT22;11707;50.830;4.364;2024-01-30T00:21:46;12.30;1.00
23079;DHT22;11707;50.830;4.364;2024-01-30T00:24:12;12.20;1.00
23079;DHT22;11707;50.830;4.364;2024-01-30T00:26:38;12.20;1.00
23079;DHT22;11707;50.830;4.364;2024-01-30T00:29:04;12.20;1.00
23079;DHT22;11707;50.830;4.364;2024-01-30T00:31:30;12.20;1.00
23079;DHT22;11707;50.830;4.364;2024-01-30T00:33:55;12.30;1.00
23079;DHT22;11707;50.830;4.364;2024-01-30T00:36:21;12.30;1.00
23079;DHT22;11707;50.830;4.364;2024-01-30T00:38:47;12.20;1.00
23079;DHT22;11707;50.830;4.364;2024-01-30T00:41:13;12.30;1.00
23079;DHT22;11707;50.830;4.364;2024-01-30T00:43:39;12.30;1.00
23079;DHT22;11707;50.830;4.364;2024-01-30T00:46:04;12.30;1.00
23079;DHT22;11707;50.830;4.364;2024-01-30T00:48:30;12.30;1.00
23079;DHT22;11707;50.830;4.364;2024-01-30T00:50:56;12.30;1.00
23079;DHT22;11707;50.830;4.364;2024-01-30T00:53:21;12.30;1.00
23079;DHT22;11707;50.830;4.364;2024-01-30T00:55:47;12.20;1.00
23079;DHT22;11707;50.830;4.364;2024-01-30T00:58:13;12.30;1.00
23079;DHT22;11707;50.830;4.364;2024-01-30T01:00:39;12.30;1.00
23079;DHT22;11707;50.830;4.364;2024-01-30T01:03:05;12.40;1.00
23079;DHT22;11707;50.830;4.364;2024-01-30T01:05:31;12.50;1.00
23079;DHT22;11707;50.830;4.364;2024-01-30T01:08:00;12.50;1.00
23079;DHT22;11707;50.830;4.364;2024-01-30T01:10:26;12.60;1.00
23079;DHT22;11707;50.830;4.364;2024-01-30T01:12:52;12.60;1.00
23079;DHT22;11707;50.830;4.364;2024-01-30T01:15:18;12.50;1.00
23079;DHT22;11707;50.830;4.364;2024-01-30T01:17:44;12.50;1.00
23079;DHT22;11707;50.830;4.364;2024-01-30T01:20:10;12.50;1.00
23079;DHT22;11707;50.830;4.364;2024-01-30T01:22:37;12.50;1.00
23079;DHT22;11707;50.830;4.364;2024-01-30T01:25:06;12.50;1.00
23079;DHT22;11707;50.830;4.364;2024-01-30T01:27:34;12.50;1.00
23079;DHT22;11707;50.830;4.364;2024-01-30T01:30:04;12.70;1.00
23079;DHT22;11707;50.830;4.364;2024-01-30T01:32:31;12.70;1.00
23079;DHT22;11707;50.830;4.364;2024-01-30T01:34:57;12.70;1.00
23079;DHT22;11707;50.830;4.364;2024-01-30T01:37:23;12.90;1.00
23079;DHT22;11707;50.830;4.364;2024-01-30T01:39:52;12.90;1.00
23079;DHT22;11707;50.830;4.364;2024-01-30T01:42:18;12.90;1.00
23079;DHT22;11707;50.830;4.364;2024-01-30T01:44:43;13.00;1.00
23079;DHT22;11707;50.830;4.364;2024-01-30T01:47:11;13.00;1.00
23079;DHT22;11707;50.830;4.364;2024-01-30T01:49:37;13.00;1.00
23079;DHT22;11707;50.830;4.364;2024-01-30T01:52:03;12.90;1.00
23079;DHT22;11707;50.830;4.364;2024-01-30T01:54:30;12.80;1.00
23079;DHT22;11707;50.830;4.364;2024-01-30T01:56:56;12.80;1.00
23079;DHT22;11707;50.830;4.364;2024-01-30T01:59:22;12.90;1.00
23079;DHT22;11707;50.830;4.364;2024-01-30T02:01:49;12.90;1.00
23079;DHT22;11707;50.830;4.364;2024-01-30T02:04:18;12.90;1.00
23079;DHT22;11707;50.830;4.364;2024-01-30T02:06:44;12.80;1.00
23079;DHT22;11707;50.830;4.364;2024-01-30T02:09:10;12.70;1.00
23079;DHT22;11707;50.830;4.364;2024-01-30T02:11:36;12.70;1.00
23079;DHT22;11707;50.830;4.364;2024-01-30T02:14:04;12.70;1.00
23079;DHT22;11707;50.830;4.364;2024-01-30T02:16:31;12.80;1.00
23079;DHT22;11707;50.830;4.364;2024-01-30T02:19:00;12.70;1.00
23079;DHT22;11707;50.830;4.364;2024-01-30T02:21:25;12.70;1.00
23079;DHT22;11707;50.830;4.364;2024-01-30T02:23:52;12.80;1.00
23079;DHT22;11707;50.830;4.364;2024-01-30T02:26:24;12.70;1.00
23079;DHT22;11707;50.830;4.364;2024-01-30T02:28:54;12.80;1.00
23079;DHT22;11707;50.830;4.364;2024-01-30T02:31:20;12.80;1.00
23079;DHT22;11707;50.830;4.364;2024-01-30T02:33:46;12.90;1.00
23079;DHT22;11707;50.830;4.364;2024-01-30T02:36:11;12.90;1.00
23079;DHT22;11707;50.830;4.364;2024-01-30T02:38:37;13.00;1.00
23079;DHT22;11707;50.830;4.364;2024-01-30T02:41:05;12.80;1.00
23079;DHT22;11707;50.830;4.364;2024-01-30T02:43:31;12.90;1.00
23079;DHT22;11707;50.830;4.364;2024-01-30T02:45:59;12.90;1.00
23079;DHT22;11707;50.830;4.364;2024-01-30T02:48:26;13.00;1.00
23079;DHT22;11707;50.830;4.364;2024-01-30T02:50:52;13.00;1.00
23079;DHT22;11707;50.830;4.364;2024-01-30T02:53:17;12.90;1.00
23079;DHT22;11707;50.830;4.364;2024-01-30T02:55:43;12.90;1.00
23079;DHT22;11707;50.830;4.364;2024-01-30T02:58:11;13.00;1.00
23079;DHT22;11707;50.830;4.364;2024-01-30T03:00:37;12.90;1.00
23079;DHT22;11707;50.830;4.364;2024-01-30T03:03:03;12.80;1.00
23079;DHT22;11707;50.830;4.364;2024-01-30T03:05:31;12.80;1.00
23079;DHT22;11707;50.830;4.364;2024-01-30T03:07:57;12.90;1.00
23079;DHT22;11707;50.830;4.364;2024-01-30T03:10:23;12.90;1.00
23079;DHT22;11707;50.830;4.364;2024-01-30T03:12:48;12.90;1.00
23079;DHT22;11707;50.830;4.364;2024-01-30T03:15:14;13.10;1.00
23079;DHT22;11707;50.830;4.364;2024-01-30T03:17:40;13.10;1.00
23079;DHT22;11707;50.830;4.364;2024-01-30T03:20:06;13.10;1.00
23079;DHT22;11707;50.830;4.364;2024-01-30T03:22:32;13.10;1.00
23079;DHT22;11707;50.830;4.364;2024-01-30T03:24:58;13.10;1.00
23079;DHT22;11707;50.830;4.364;2024-01-30T03:27:24;13.10;1.00
23079;DHT22;11707;50.830;4.364;2024-01-30T03:29:49;13.00;1.00
23079;DHT22;11707;50.830;4.364;2024-01-30T03:32:15;13.00;1.00
23079;DHT22;11707;50.830;4.364;2024-01-30T03:34:43;13.00;1.00
23079;DHT22;11707;50.830;4.364;2024-01-30T03:37:09;13.00;1.00
23079;DHT22;11707;50.830;4.364;2024-01-30T03:39:34;13.00;1.00
23079;DHT22;11707;50.830;4.364;2024-01-30T03:42:02;13.10;1.00
23079;DHT22;11707;50.830;4.364;2024-01-30T03:44:28;13.20;1.00
23079;DHT22;11707;50.830;4.364;2024-01-30T03:46:54;13.20;1.00
23079;DHT22;11707;50.830;4.364;2024-01-30T03:49:19;13.20;1.00
23079;DHT22;11707;50.830;4.364;2024-01-30T03:51:45;13.10;1.00
23079;DHT22;11707;50.830;4.364;2024-01-30T03:54:13;12.90;1.00
23079;DHT22;11707;50.830;4.364;2024-01-30T03:56:38;12.90;1.00
23079;DHT22;11707;50.830;4.364;2024-01-30T03:59:04;12.80;1.00
23079;DHT22;11707;50.830;4.364;2024-01-30T04:01:30;12.70;1.00
23079;DHT22;11707;50.830;4.364;2024-01-30T04:03:58;12.70;1.00
23079;DHT22;11707;50.830;4.364;2024-01-30T04:06:23;12.90;1.00
23079;DHT22;11707;50.830;4.364;2024-01-30T04:08:51;13.00;1.00
23079;DHT22;11707;50.830;4.364;2024-01-30T04:11:20;13.00;1.00
23079;DHT22;11707;50.830;4.364;2024-01-30T04:13:46;12.90;1.00
23079;DHT22;11707;50.830;4.364;2024-01-30T04:16:23;13.00;1.00
23079;DHT22;11707;50.830;4.364;2024-01-30T04:18:49;13.10;1.00
23079;DHT22;11707;50.830;4.364;2024-01-30T04:21:14;13.00;1.00
23079;DHT22;11707;50.830;4.364;2024-01-30T04:23:43;13.00;1.00
23079;DHT22;11707;50.830;4.364;2024-01-30T04:26:09;13.00;1.00
23079;DHT22;11707;50.830;4.364;2024-01-30T04:28:34;13.00;1.00
23079;DHT22;11707;50.830;4.364;2024-01-30T04:31:00;13.10;1.00
23079;DHT22;11707;50.830;4.364;2024-01-30T04:33:28;13.00;1.00
23079;DHT22;11707;50.830;4.364;2024-01-30T04:35:57;13.00;1.00
23079;DHT22;11707;50.830;4.364;2024-01-30T04:38:28;13.00;1.00
23079;DHT22;11707;50.830;4.364;2024-01-30T04:40:54;13.00;1.00
23079;DHT22;11707;50.830;4.364;2024-01-30T04:43:20;12.70;1.00
23079;DHT22;11707;50.830;4.364;2024-01-30T04:45:45;12.70;1.00
23079;DHT22;11707;50.830;4.364;2024-01-30T04:48:11;12.70;1.00
23079;DHT22;11707;50.830;4.364;2024-01-30T04:50:37;12.70;1.00
23079;DHT22;11707;50.830;4.364;2024-01-30T04:53:06;12.60;1.00
23079;DHT22;11707;50.830;4.364;2024-01-30T04:55:31;12.50;1.00
23079;DHT22;11707;50.830;4.364;2024-01-30T04:57:57;12.40;1.00
23079;DHT22;11707;50.830;4.364;2024-01-30T05:00:25;12.40;1.00
23079;DHT22;11707;50.830;4.364;2024-01-30T05:02:51;12.30;1.00
23079;DHT22;11707;50.830;4.364;2024-01-30T05:05:16;12.40;1.00
23079;DHT22;11707;50.830;4.364;2024-01-30T05:07:42;12.40;1.00
23079;DHT22;11707;50.830;4.364;2024-01-30T05:10:08;12.40;1.00
23079;DHT22;11707;50.830;4.364;2024-01-30T05:12:34;12.40;1.00
23079;DHT22;11707;50.830;4.364;2024-01-30T05:14:59;12.40;1.00
23079;DHT22;11707;50.830;4.364;2024-01-30T05:17:25;12.50;1.00
23079;DHT22;11707;50.830;4.364;2024-01-30T05:19:51;12.40;1.00
23079;DHT22;11707;50.830;4.364;2024-01-30T05:22:16;12.40;1.00
23079;DHT22;11707;50.830;4.364;2024-01-30T05:24:44;12.50;1.00
23079;DHT22;11707;50.830;4.364;2024-01-30T05:27:10;12.50;1.00
23079;DHT22;11707;50.830;4.364;2024-01-30T05:29:35;12.50;1.00
23079;DHT22;11707;50.830;4.364;2024-01-30T05:32:02;12.70;1.00
23079;DHT22;11707;50.830;4.364;2024-01-30T05:34:30;12.60;1.00
23079;DHT22;11707;50.830;4.364;2024-01-30T05:36:58;12.60;1.00
23079;DHT22;11707;50.830;4.364;2024-01-30T05:39:24;12.50;1.00
23079;DHT22;11707;50.830;4.364;2024-01-30T05:41:52;12.40;1.00
23079;DHT22;11707;50.830;4.364;2024-01-30T05:44:18;12.40;1.00
23079;DHT22;11707;50.830;4.364;2024-01-30T05:46:45;12.30;1.00
23079;DHT22;11707;50.830;4.364;2024-01-30T05:49:11;12.40;1.00
23079;DHT22;11707;50.830;4.364;2024-01-30T05:51:37;12.30;1.00
23079;DHT22;11707;50.830;4.364;2024-01-30T05:54:03;12.30;1.00
23079;DHT22;11707;50.830;4.364;2024-01-30T05:56:33;12.40;1.00
23079;DHT22;11707;50.830;4.364;2024-01-30T05:59:02;12.30;1.00
23079;DHT22;11707;50.830;4.364;2024-01-30T06:01:28;12.40;1.00
23079;DHT22;11707;50.830;4.364;2024-01-30T06:03:54;12.40;1.00
23079;DHT22;11707;50.830;4.364;2024-01-30T06:06:20;12.50;1.00
23079;DHT22;11707;50.830;4.364;2024-01-30T06:08:46;12.60;1.00
23079;DHT22;11707;50.830;4.364;2024-01-30T06:11:12;12.60;1.00
23079;DHT22;11707;50.830;4.364;2024-01-30T06:13:40;12.60;1.00
23079;DHT22;11707;50.830;4.364;2024-01-30T06:16:09;12.40;1.00
23079;DHT22;11707;50.830;4.364;2024-01-30T06:18:37;12.50;1.00
23079;DHT22;11707;50.830;4.364;2024-01-30T06:21:05;12.50;1.00
23079;DHT22;11707;50.830;4.364;2024-01-30T06:23:31;12.60;1.00
23079;DHT22;11707;50.830;4.364;2024-01-30T06:25:57;12.60;1.00
23079;DHT22;11707;50.830;4.364;2024-01-30T06:28:24;12.40;1.00
23079;DHT22;11707;50.830;4.364;2024-01-30T06:30:52;12.50;1.00
23079;DHT22;11707;50.830;4.364;2024-01-30T06:33:18;12.60;1.00
23079;DHT22;11707;50.830;4.364;2024-01-30T06:35:44;12.60;1.00
23079;DHT22;11707;50.830;4.364;2024-01-30T06:38:14;12.60;1.00
23079;DHT22;11707;50.830;4.364;2024-01-30T06:40:41;12.40;1.00
23079;DHT22;11707;50.830;4.364;2024-01-30T06:43:07;12.40;1.00
23079;DHT22;11707;50.830;4.364;2024-01-30T06:45:33;12.50;1.00
23079;DHT22;11707;50.830;4.364;2024-01-30T06:48:00;12.60;1.00
23079;DHT22;11707;50.830;4.364;2024-01-30T06:50:26;12.60;1.00
23079;DHT22;11707;50.830;4.364;2024-01-30T06:52:51;12.60;1.00
23079;DHT22;11707;50.830;4.364;2024-01-30T06:55:18;12.60;1.00
23079;DHT22;11707;50.830;4.364;2024-01-30T06:57:44;12.70;1.00
23079;DHT22;11707;50.830;4.364;2024-01-30T07:00:10;12.60;1.00
23079;DHT22;11707;50.830;4.364;2024-01-30T07:02:36;12.60;1.00
23079;DHT22;11707;50.830;4.364;2024-01-30T07:05:02;12.60;1.00
23079;DHT22;11707;50.830;4.364;2024-01-30T07:07:30;12.60;1.00
23079;DHT22;11707;50.830;4.364;2024-01-30T07:09:56;12.70;1.00
23079;DHT22;11707;50.830;4.364;2024-01-30T07:12:25;12.70;1.00
23079;DHT22;11707;50.830;4.364;2024-01-30T07:14:51;12.80;1.00
23079;DHT22;11707;50.830;4.364;2024-01-30T07:17:17;12.70;1.00
23079;DHT22;11707;50.830;4.364;2024-01-30T07:19:45;12.60;1.00
23079;DHT22;11707;50.830;4.364;2024-01-30T07:22:11;12.70;1.00
23079;DHT22;11707;50.830;4.364;2024-01-30T07:24:44;12.80;1.00
23079;DHT22;11707;50.830;4.364;2024-01-30T07:27:12;12.70;1.00
23079;DHT22;11707;50.830;4.364;2024-01-30T07:29:38;12.80;1.00
23079;DHT22;11707;50.830;4.364;2024-01-30T07:32:04;12.80;1.00
23079;DHT22;11707;50.830;4.364;2024-01-30T07:34:30;12.80;1.00
23079;DHT22;11707;50.830;4.364;2024-01-30T07:36:56;12.90;1.00
23079;DHT22;11707;50.830;4.364;2024-01-30T07:39:21;13.00;1.00
23079;DHT22;11707;50.830;4.364;2024-01-30T07:41:47;12.90;1.00
23079;DHT22;11707;50.830;4.364;2024-01-30T07:44:13;12.80;1.00
23079;DHT22;11707;50.830;4.364;2024-01-30T07:46:38;12.80;1.00
23079;DHT22;11707;50.830;4.364;2024-01-30T07:49:04;12.90;1.00
23079;DHT22;11707;50.830;4.364;2024-01-30T07:51:30;12.90;1.00
23079;DHT22;11707;50.830;4.364;2024-01-30T07:53:58;12.90;1.00
23079;DHT22;11707;50.830;4.364;2024-01-30T07:56:24;12.90;1.00
23079;DHT22;11707;50.830;4.364;2024-01-30T07:58:50;12.90;1.00
23079;DHT22;11707;50.830;4.364;2024-01-30T08:01:19;12.80;1.00
23079;DHT22;11707;50.830;4.364;2024-01-30T08:03:45;12.90;1.00
23079;DHT22;11707;50.830;4.364;2024-01-30T08:06:10;13.00;1.00
23079;DHT22;11707;50.830;4.364;2024-01-30T08:08:36;13.00;1.00
23079;DHT22;11707;50.830;4.364;2024-01-30T08:11:03;13.00;1.00
23079;DHT22;11707;50.830;4.364;2024-01-30T08:13:29;12.70;1.00
23079;DHT22;11707;50.830;4.364;2024-01-30T08:15:55;12.80;1.00
23079;DHT22;11707;50.830;4.364;2024-01-30T08:18:23;12.80;1.00
23079;DHT22;11707;50.830;4.364;2024-01-30T08:20:52;12.80;1.00
23079;DHT22;11707;50.830;4.364;2024-01-30T08:23:17;12.60;1.00
23079;DHT22;11707;50.830;4.364;2024-01-30T08:25:43;12.60;1.00
23079;DHT22;11707;50.830;4.364;2024-01-30T08:28:11;12.70;1.00
23079;DHT22;11707;50.830;4.364;2024-01-30T08:30:37;12.70;1.00
23079;DHT22;11707;50.830;4.364;2024-01-30T08:33:04;12.70;1.00
23079;DHT22;11707;50.830;4.364;2024-01-30T08:35:30;12.70;1.00
23079;DHT22;11707;50.830;4.364;2024-01-30T08:37:59;12.80;1.00
23079;DHT22;11707;50.830;4.364;2024-01-30T08:40:24;12.70;1.00
23079;DHT22;11707;50.830;4.364;2024-01-30T08:42:50;12.80;1.00
23079;DHT22;11707;50.830;4.364;2024-01-30T08:45:16;12.90;1.00
23079;DHT22;11707;50.830;4.364;2024-01-30T08:47:42;12.90;1.00
23079;DHT22;11707;50.830;4.364;2024-01-30T08:50:07;13.10;1.00
23079;DHT22;11707;50.830;4.364;2024-01-30T08:52:33;13.00;1.00
23079;DHT22;11707;50.830;4.364;2024-01-30T08:55:00;13.00;1.00
23079;DHT22;11707;50.830;4.364;2024-01-30T08:57:25;13.10;1.00
23079;DHT22;11707;50.830;4.364;2024-01-30T08:59:54;13.10;1.00
23079;DHT22;11707;50.830;4.364;2024-01-30T09:02:20;13.00;1.00
23079;DHT22;11707;50.830;4.364;2024-01-30T09:04:46;13.00;1.00
23079;DHT22;11707;50.830;4.364;2024-01-30T09:07:12;13.00;1.00
23079;DHT22;11707;50.830;4.364;2024-01-30T09:09:39;13.00;1.00
23079;DHT22;11707;50.830;4.364;2024-01-30T09:12:06;13.10;1.00
23079;DHT22;11707;50.830;4.364;2024-01-30T09:14:39;13.00;1.00
23079;DHT22;11707;50.830;4.364;2024-01-30T09:17:08;12.90;1.00
23079;DHT22;11707;50.830;4.364;2024-01-30T09:19:34;12.90;1.00
23079;DHT22;11707;50.830;4.364;2024-01-30T09:21:59;13.00;1.00
23079;DHT22;11707;50.830;4.364;2024-01-30T09:24:26;13.00;1.00
23079;DHT22;11707;50.830;4.364;2024-01-30T09:26:52;13.10;1.00
23079;DHT22;11707;50.830;4.364;2024-01-30T09:29:20;12.90;1.00
23079;DHT22;11707;50.830;4.364;2024-01-30T09:31:46;12.90;1.00
23079;DHT22;11707;50.830;4.364;2024-01-30T09:34:12;12.80;1.00
23079;DHT22;11707;50.830;4.364;2024-01-30T09:36:39;12.80;1.00
23079;DHT22;11707;50.830;4.364;2024-01-30T09:39:07;12.70;1.00
23079;DHT22;11707;50.830;4.364;2024-01-30T09:41:33;12.70;1.00
23079;DHT22;11707;50.830;4.364;2024-01-30T09:44:01;12.60;5.40
23079;DHT22;11707;50.830;4.364;2024-01-30T09:46:28;12.70;8.80
23079;DHT22;11707;50.830;4.364;2024-01-30T09:48:57;12.70;6.10
23079;DHT22;11707;50.830;4.364;2024-01-30T09:51:24;12.60;16.90
23079;DHT22;11707;50.830;4.364;2024-01-30T09:53:51;12.60;19.50
23079;DHT22;11707;50.830;4.364;2024-01-30T09:56:18;12.70;15.20
23079;DHT22;11707;50.830;4.364;2024-01-30T09:58:44;12.70;5.30
23079;DHT22;11707;50.830;4.364;2024-01-30T10:01:10;12.70;1.90
23079;DHT22;11707;50.830;4.364;2024-01-30T10:03:38;12.70;12.70
23079;DHT22;11707;50.830;4.364;2024-01-30T10:06:04;12.60;17.90
23079;DHT22;11707;50.830;4.364;2024-01-30T10:08:32;12.70;9.10
23079;DHT22;11707;50.830;4.364;2024-01-30T10:10:58;12.50;14.00
23079;DHT22;11707;50.830;4.364;2024-01-30T10:13:25;12.30;22.90
23079;DHT22;11707;50.830;4.364;2024-01-30T10:15:50;12.30;33.30
23079;DHT22;11707;50.830;4.364;2024-01-30T10:18:17;12.40;33.60
23079;DHT22;11707;50.830;4.364;2024-01-30T10:20:43;12.40;29.30
23079;DHT22;11707;50.830;4.364;2024-01-30T10:23:09;12.40;26.50
23079;DHT22;11707;50.830;4.364;2024-01-30T10:25:40;12.30;29.80
23079;DHT22;11707;50.830;4.364;2024-01-30T10:28:09;12.30;31.40
23079;DHT22;11707;50.830;4.364;2024-01-30T10:30:35;12.10;43.30
23079;DHT22;11707;50.830;4.364;2024-01-30T10:33:00;12.00;50.90
23079;DHT22;11707;50.830;4.364;2024-01-30T10:35:26;12.00;55.00
23079;DHT22;11707;50.830;4.364;2024-01-30T10:37:52;12.00;57.90
23079;DHT22;11707;50.830;4.364;2024-01-30T10:40:20;11.90;59.60
23079;DHT22;11707;50.830;4.364;2024-01-30T10:42:47;11.80;60.30
23079;DHT22;11707;50.830;4.364;2024-01-30T10:45:17;11.80;63.10
23079;DHT22;11707;50.830;4.364;2024-01-30T10:47:52;11.60;69.90
23079;DHT22;11707;50.830;4.364;2024-01-30T10:50:19;11.70;69.00
23079;DHT22;11707;50.830;4.364;2024-01-30T10:52:47;11.70;67.80
23079;DHT22;11707;50.830;4.364;2024-01-30T10:55:16;11.60;66.60
23079;DHT22;11707;50.830;4.364;2024-01-30T10:57:41;11.60;63.30
23079;DHT22;11707;50.830;4.364;2024-01-30T11:00:10;11.60;66.80
23079;DHT22;11707;50.830;4.364;2024-01-30T11:02:41;11.60;63.70
23079;DHT22;11707;50.830;4.364;2024-01-30T11:05:09;11.50;67.80
23079;DHT22;11707;50.830;4.364;2024-01-30T11:07:35;11.50;70.90
23079;DHT22;11707;50.830;4.364;2024-01-30T11:10:03;11.50;68.20
23079;DHT22;11707;50.830;4.364;2024-01-30T11:12:38;11.50;64.30
23079;DHT22;11707;50.830;4.364;2024-01-30T11:15:18;11.40;60.80
23079;DHT22;11707;50.830;4.364;2024-01-30T11:17:51;11.30;63.80
23079;DHT22;11707;50.830;4.364;2024-01-30T11:20:30;11.30;66.60
23079;DHT22;11707;50.830;4.364;2024-01-30T11:23:01;11.20;50.00
23079;DHT22;11707;50.830;4.364;2024-01-30T11:25:32;11.10;44.70
23079;DHT22;11707;50.830;4.364;2024-01-30T11:27:58;11.00;34.30
23079;DHT22;11707;50.830;4.364;2024-01-30T11:30:31;11.00;25.10
23079;DHT22;11707;50.830;4.364;2024-01-30T11:35:33;11.10;1.00
23079;DHT22;11707;50.830;4.364;2024-01-30T11:38:00;11.10;1.00
23079;DHT22;11707;50.830;4.364;2024-01-30T11:40:33;11.10;1.00
23079;DHT22;11707;50.830;4.364;2024-01-30T11:43:05;11.00;1.00
23079;DHT22;11707;50.830;4.364;2024-01-30T11:45:34;11.00;1.00
23079;DHT22;11707;50.830;4.364;2024-01-30T11:48:00;11.00;1.00
23079;DHT22;11707;50.830;4.364;2024-01-30T11:50:38;11.00;1.00
23079;DHT22;11707;50.830;4.364;2024-01-30T11:53:04;11.00;1.00
23079;DHT22;11707;50.830;4.364;2024-01-30T11:55:30;11.00;1.00
23079;DHT22;11707;50.830;4.364;2024-01-30T11:57:59;11.10;1.00
23079;DHT22;11707;50.830;4.364;2024-01-30T12:00:25;11.10;1.00
23079;DHT22;11707;50.830;4.364;2024-01-30T12:02:52;11.40;1.00
23079;DHT22;11707;50.830;4.364;2024-01-30T12:05:24;11.50;99.90
23079;DHT22;11707;50.830;4.364;2024-01-30T12:07:50;11.40;99.90
23079;DHT22;11707;50.830;4.364;2024-01-30T12:10:16;11.30;99.90
23079;DHT22;11707;50.830;4.364;2024-01-30T12:12:49;11.30;99.90
23079;DHT22;11707;50.830;4.364;2024-01-30T12:15:15;11.40;99.90
23079;DHT22;11707;50.830;4.364;2024-01-30T12:17:42;11.30;99.90
23079;DHT22;11707;50.830;4.364;2024-01-30T12:20:13;11.20;99.90
23079;DHT22;11707;50.830;4.364;2024-01-30T12:22:44;11.20;99.90
23079;DHT22;11707;50.830;4.364;2024-01-30T12:25:14;11.20;99.90
23079;DHT22;11707;50.830;4.364;2024-01-30T12:27:45;11.30;99.90
23079;DHT22;11707;50.830;4.364;2024-01-30T12:30:12;11.40;99.90
23079;DHT22;11707;50.830;4.364;2024-01-30T12:32:46;11.50;23.40
23079;DHT22;11707;50.830;4.364;2024-01-30T12:35:15;11.50;1.00
23079;DHT22;11707;50.830;4.364;2024-01-30T12:37:46;11.50;1.00
23079;DHT22;11707;50.830;4.364;2024-01-30T12:40:13;11.50;99.90
23079;DHT22;11707;50.830;4.364;2024-01-30T12:42:43;11.50;99.90
23079;DHT22;11707;50.830;4.364;2024-01-30T12:45:09;11.50;99.90
23079;DHT22;11707;50.830;4.364;2024-01-30T12:47:37;11.40;99.90
23079;DHT22;11707;50.830;4.364;2024-01-30T12:50:03;11.40;99.90
23079;DHT22;11707;50.830;4.364;2024-01-30T12:52:29;11.30;1.00
23079;DHT22;11707;50.830;4.364;2024-01-30T12:54:55;11.40;1.00
23079;DHT22;11707;50.830;4.364;2024-01-30T12:57:20;11.20;99.90
23079;DHT22;11707;50.830;4.364;2024-01-30T12:59:49;11.30;99.90
23079;DHT22;11707;50.830;4.364;2024-01-30T13:02:15;11.30;33.70
23079;DHT22;11707;50.830;4.364;2024-01-30T13:04:42;11.30;80.20
23079;DHT22;11707;50.830;4.364;2024-01-30T13:07:10;11.40;97.80
23079;DHT22;11707;50.830;4.364;2024-01-30T13:09:36;11.30;99.90
23079;DHT22;11707;50.830;4.364;2024-01-30T13:12:06;11.20;99.90
23079;DHT22;11707;50.830;4.364;2024-01-30T13:14:32;11.30;99.90
23079;DHT22;11707;50.830;4.364;2024-01-30T13:16:58;11.40;99.90
23079;DHT22;11707;50.830;4.364;2024-01-30T13:19:24;11.60;99.90
23079;DHT22;11707;50.830;4.364;2024-01-30T13:21:50;11.70;85.70
23079;DHT22;11707;50.830;4.364;2024-01-30T13:24:18;11.50;1.00
23079;DHT22;11707;50.830;4.364;2024-01-30T13:26:46;11.50;6.90
23079;DHT22;11707;50.830;4.364;2024-01-30T13:29:12;11.50;1.00
23079;DHT22;11707;50.830;4.364;2024-01-30T13:31:38;11.50;19.20
23079;DHT22;11707;50.830;4.364;2024-01-30T13:34:05;11.40;29.90
23079;DHT22;11707;50.830;4.364;2024-01-30T13:36:32;11.30;78.00
23079;DHT22;11707;50.830;4.364;2024-01-30T13:38:58;11.20;99.90
23079;DHT22;11707;50.830;4.364;2024-01-30T13:41:26;11.20;99.90
23079;DHT22;11707;50.830;4.364;2024-01-30T13:43:52;11.20;99.90
23079;DHT22;11707;50.830;4.364;2024-01-30T13:46:19;11.10;1.00
23079;DHT22;11707;50.830;4.364;2024-01-30T13:48:45;11.00;1.00
23079;DHT22;11707;50.830;4.364;2024-01-30T13:51:13;11.10;1.00
23079;DHT22;11707;50.830;4.364;2024-01-30T13:53:42;11.10;1.00
23079;DHT22;11707;50.830;4.364;2024-01-30T13:56:08;11.20;1.00
23079;DHT22;11707;50.830;4.364;2024-01-30T13:58:36;11.20;1.00
23079;DHT22;11707;50.830;4.364;2024-01-30T14:01:02;11.00;6.80
23079;DHT22;11707;50.830;4.364;2024-01-30T14:03:28;10.90;93.90
23079;DHT22;11707;50.830;4.364;2024-01-30T14:05:54;10.90;99.90
23079;DHT22;11707;50.830;4.364;2024-01-30T14:08:20;10.80;99.90
23079;DHT22;11707;50.830;4.364;2024-01-30T14:10:49;10.80;99.90
23079;DHT22;11707;50.830;4.364;2024-01-30T14:13:14;10.70;99.90
23079;DHT22;11707;50.830;4.364;2024-01-30T14:15:40;10.70;99.90
23079;DHT22;11707;50.830;4.364;2024-01-30T14:18:06;10.70;99.90
23079;DHT22;11707;50.830;4.364;2024-01-30T14:20:34;10.70;99.90
23079;DHT22;11707;50.830;4.364;2024-01-30T14:22:59;10.70;99.90
23079;DHT22;11707;50.830;4.364;2024-01-30T14:25:25;10.70;99.90
23079;DHT22;11707;50.830;4.364;2024-01-30T14:27:52;10.70;99.90
23079;DHT22;11707;50.830;4.364;2024-01-30T14:30:17;10.60;99.90
23079;DHT22;11707;50.830;4.364;2024-01-30T14:32:43;10.60;99.90
23079;DHT22;11707;50.830;4.364;2024-01-30T14:35:10;10.60;99.90
23079;DHT22;11707;50.830;4.364;2024-01-30T14:37:37;10.60;99.90
23079;DHT22;11707;50.830;4.364;2024-01-30T14:40:06;10.60;99.90
23079;DHT22;11707;50.830;4.364;2024-01-30T14:42:35;10.60;99.90
23079;DHT22;11707;50.830;4.364;2024-01-30T14:45:03;10.60;99.90
23079;DHT22;11707;50.830;4.364;2024-01-30T14:47:29;10.50;99.90
23079;DHT22;11707;50.830;4.364;2024-01-30T14:49:54;10.50;99.90
23079;DHT22;11707;50.830;4.364;2024-01-30T14:52:20;10.50;1.00
23079;DHT22;11707;50.830;4.364;2024-01-30T14:54:46;10.40;1.00
23079;DHT22;11707;50.830;4.364;2024-01-30T14:57:12;10.40;1.00
23079;DHT22;11707;50.830;4.364;2024-01-30T14:59:39;10.30;1.00
23079;DHT22;11707;50.830;4.364;2024-01-30T15:02:05;10.30;1.00
23079;DHT22;11707;50.830;4.364;2024-01-30T15:04:34;10.30;1.00
23079;DHT22;11707;50.830;4.364;2024-01-30T15:06:59;10.30;1.00
23079;DHT22;11707;50.830;4.364;2024-01-30T15:09:25;10.20;1.00
23079;DHT22;11707;50.830;4.364;2024-01-30T15:11:53;10.10;1.00
23079;DHT22;11707;50.830;4.364;2024-01-30T15:14:21;10.10;1.00
23079;DHT22;11707;50.830;4.364;2024-01-30T15:16:47;10.10;1.00
23079;DHT22;11707;50.830;4.364;2024-01-30T15:19:12;10.10;1.00
23079;DHT22;11707;50.830;4.364;2024-01-30T15:21:38;10.10;1.00
23079;DHT22;11707;50.830;4.364;2024-01-30T15:24:07;10.10;1.00
23079;DHT22;11707;50.830;4.364;2024-01-30T15:26:32;10.00;1.00
23079;DHT22;11707;50.830;4.364;2024-01-30T15:28:58;10.00;1.00
23079;DHT22;11707;50.830;4.364;2024-01-30T15:31:24;9.90;1.00
23079;DHT22;11707;50.830;4.364;2024-01-30T15:33:49;9.80;1.00
23079;DHT22;11707;50.830;4.364;2024-01-30T15:36:15;9.80;1.00
23079;DHT22;11707;50.830;4.364;2024-01-30T15:38:41;9.90;1.00
23079;DHT22;11707;50.830;4.364;2024-01-30T15:41:09;9.90;1.00
23079;DHT22;11707;50.830;4.364;2024-01-30T15:43:35;9.90;1.00